Time,TemperatureF,DewpointF,PressureIn,WindDirection,WindDirectionDegrees,WindSpeedMPH,WindSpeedGustMPH,Humidity,HourlyPrecipIn,Conditions,Clouds,dailyrainin,SoftwareType,DateUTC
2013-03-09 00:03:00,49.7,48.0,30.20,SW,230,0.0,-999.0,93,-99.99,,,0.00,weatherlink.com 1.10,2013-03-09 06:03:00,
2013-03-09 00:18:00,49.2,48.0,30.20,SW,230,0.0,-999.0,94,-99.99,,,0.00,weatherlink.com 1.10,2013-03-09 06:18:00,
2013-03-09 00:33:00,48.7,47.0,30.19,SW,231,0.0,-999.0,94,-99.99,,,0.00,weatherlink.com 1.10,2013-03-09 06:33:00,
2013-03-09 00:48:00,48.2,47.0,30.19,SW,230,0.0,-999.0,95,-99.99,,,0.00,weatherlink.com 1.10,2013-03-09 06:48:00,
2013-03-09 01:03:00,47.8,47.0,30.18,SW,230,0.0,-999.0,95,-99.99,,,0.00,weatherlink.com 1.10,2013-03-09 07:03:00,
2013-03-09 01:19:00,47.5,46.0,30.17,SW,230,0.0,-999.0,95,-99.99,,,0.00,weatherlink.com 1.10,2013-03-09 07:19:00,
2013-03-09 01:34:00,47.4,46.0,30.16,SW,230,0.0,-999.0,96,-99.99,,,0.00,weatherlink.com 1.10,2013-03-09 07:34:00,
2013-03-09 01:49:00,47.4,46.0,30.14,SW,230,0.0,-999.0,96,-99.99,,,0.00,weatherlink.com 1.10,2013-03-09 07:49:00,
2013-03-09 02:03:00,47.4,47.0,30.13,SW,230,0.0,-999.0,97,-99.99,,,0.00,weatherlink.com 1.10,2013-03-09 08:03:00,
2013-03-09 02:18:00,47.7,47.0,30.13,SW,230,0.0,-999.0,97,-99.99,,,0.00,weatherlink.com 1.10,2013-03-09 08:18:00,
2013-03-09 02:33:00,48.0,48.0,30.12,SW,230,0.0,-999.0,98,-99.99,,,0.00,weatherlink.com 1.10,2013-03-09 08:33:00,
2013-03-09 02:48:00,48.7,48.0,30.11,SW,230,0.0,-999.0,98,-99.99,,,0.00,weatherlink.com 1.10,2013-03-09 08:48:00,
2013-03-09 03:05:00,49.0,49.0,30.11,SW,230,0.0,-999.0,98,-99.99,,,0.00,weatherlink.com 1.10,2013-03-09 09:05:00,
2013-03-09 03:18:00,49.2,49.0,30.11,SW,230,0.0,-999.0,98,-99.99,,,0.00,weatherlink.com 1.10,2013-03-09 09:18:00,
2013-03-09 03:33:00,49.3,49.0,30.11,SW,230,0.0,-999.0,98,-99.99,,,0.00,weatherlink.com 1.10,2013-03-09 09:33:00,
2013-03-09 03:48:00,49.5,49.0,30.12,SW,230,0.0,-999.0,98,-99.99,,,0.00,weatherlink.com 1.10,2013-03-09 09:48:00,
2013-03-09 04:05:00,49.5,49.0,30.12,SW,230,0.0,-999.0,98,-99.99,,,0.00,weatherlink.com 1.10,2013-03-09 10:05:00,
2013-03-09 04:19:00,49.4,49.0,30.12,SW,230,0.0,-999.0,98,-99.99,,,0.00,weatherlink.com 1.10,2013-03-09 10:19:00,
2013-03-09 04:35:00,49.4,49.0,30.13,SW,230,0.0,-999.0,98,-99.99,,,0.00,weatherlink.com 1.10,2013-03-09 10:35:00,
2013-03-09 04:48:00,49.3,49.0,30.13,SW,230,0.0,-999.0,98,-99.99,,,0.00,weatherlink.com 1.10,2013-03-09 10:48:00,
2013-03-09 05:03:00,49.4,49.0,30.13,SW,230,0.0,-999.0,98,-99.99,,,0.00,weatherlink.com 1.10,2013-03-09 11:03:00,
2013-03-09 05:18:00,49.4,49.0,30.14,SW,231,0.0,-999.0,98,-99.99,,,0.00,weatherlink.com 1.10,2013-03-09 11:18:00,
2013-03-09 05:33:00,49.3,49.0,30.14,SSW,200,0.0,-999.0,97,-99.99,,,0.00,weatherlink.com 1.10,2013-03-09 11:33:00,
2013-03-09 05:48:00,49.3,49.0,30.14,East,90,0.0,-999.0,97,-99.99,,,0.00,weatherlink.com 1.10,2013-03-09 11:48:00,
2013-03-09 06:04:00,49.4,49.0,30.14,East,88,0.0,-999.0,97,-99.99,,,0.00,weatherlink.com 1.10,2013-03-09 12:04:00,
2013-03-09 06:19:00,49.6,49.0,30.14,East,88,0.0,-999.0,96,-99.99,,,0.00,weatherlink.com 1.10,2013-03-09 12:19:00,
2013-03-09 06:33:00,49.6,48.0,30.16,East,82,2.0,-999.0,95,-99.99,,,0.00,weatherlink.com 1.10,2013-03-09 12:33:00,
2013-03-09 06:48:00,49.5,48.0,30.16,East,82,0.0,-999.0,94,-99.99,,,0.00,weatherlink.com 1.10,2013-03-09 12:48:00,
2013-03-09 07:03:00,49.8,48.0,30.16,East,82,0.0,-999.0,94,-99.99,,,0.00,weatherlink.com 1.10,2013-03-09 13:03:00,
2013-03-09 07:18:00,50.3,48.0,30.16,East,82,0.0,-999.0,92,-99.99,,,0.00,weatherlink.com 1.10,2013-03-09 13:18:00,
2013-03-09 07:33:00,50.9,48.0,30.17,East,86,2.0,-999.0,91,-99.99,,,0.00,weatherlink.com 1.10,2013-03-09 13:33:00,
2013-03-09 07:48:00,51.7,49.0,30.18,East,86,0.0,-999.0,90,-99.99,,,0.00,weatherlink.com 1.10,2013-03-09 13:48:00,
2013-03-09 08:05:00,52.5,49.0,30.18,East,101,4.0,-999.0,89,-99.99,,,0.00,weatherlink.com 1.10,2013-03-09 14:05:00,
2013-03-09 08:19:00,53.7,50.0,30.18,East,100,0.0,-999.0,88,-99.99,,,0.00,weatherlink.com 1.10,2013-03-09 14:19:00,
2013-03-09 08:34:00,55.1,51.0,30.17,East,99,0.0,-999.0,85,-99.99,,,0.00,weatherlink.com 1.10,2013-03-09 14:34:00,
2013-03-09 08:49:00,56.9,52.0,30.18,East,95,0.0,-999.0,82,-99.99,,,0.00,weatherlink.com 1.10,2013-03-09 14:49:00,
2013-03-09 09:04:00,58.8,51.0,30.18,East,96,0.0,-999.0,75,-99.99,,,0.00,weatherlink.com 1.10,2013-03-09 15:04:00,
2013-03-09 09:20:00,60.5,48.0,30.19,ESE,117,4.0,-999.0,64,-99.99,,,0.00,weatherlink.com 1.10,2013-03-09 15:20:00,
2013-03-09 09:34:00,61.8,49.0,30.20,ESE,112,9.0,-999.0,63,-99.99,,,0.00,weatherlink.com 1.10,2013-03-09 15:34:00,
2013-03-09 09:49:00,63.0,49.0,30.20,SSE,149,2.0,-999.0,61,-99.99,,,0.00,weatherlink.com 1.10,2013-03-09 15:49:00,
2013-03-09 10:04:00,63.5,51.0,30.20,ESE,119,15.0,-999.0,63,-99.99,,,0.00,weatherlink.com 1.10,2013-03-09 16:04:00,
2013-03-09 10:19:00,64.5,52.0,30.20,SE,140,11.0,-999.0,64,-99.99,,,0.00,weatherlink.com 1.10,2013-03-09 16:19:00,
2013-03-09 10:34:00,65.2,53.0,30.20,SSE,148,8.0,-999.0,65,-99.99,,,0.00,weatherlink.com 1.10,2013-03-09 16:34:00,
2013-03-09 10:50:00,65.2,54.0,30.20,SSE,165,2.0,-999.0,68,-99.99,,,0.00,weatherlink.com 1.10,2013-03-09 16:50:00,
2013-03-09 11:06:00,64.9,55.0,30.20,SSE,162,7.0,-999.0,70,-99.99,,,0.00,weatherlink.com 1.10,2013-03-09 17:06:00,
2013-03-09 11:20:00,64.9,56.0,30.19,SSE,154,8.0,-999.0,73,-99.99,,,0.00,weatherlink.com 1.10,2013-03-09 17:20:00,
2013-03-09 11:35:00,65.9,57.0,30.20,SE,134,8.0,-999.0,74,-99.99,,,0.00,weatherlink.com 1.10,2013-03-09 17:35:00,
2013-03-09 11:50:00,66.7,57.0,30.19,SSE,150,7.0,-999.0,72,-99.99,,,0.00,weatherlink.com 1.10,2013-03-09 17:50:00,
2013-03-09 12:05:00,68.0,59.0,30.18,SSE,155,9.0,-999.0,72,-99.99,,,0.00,weatherlink.com 1.10,2013-03-09 18:05:00,
2013-03-09 12:20:00,68.2,59.0,30.18,SSE,152,11.0,-999.0,72,-99.99,,,0.00,weatherlink.com 1.10,2013-03-09 18:20:00,
2013-03-09 12:35:00,68.3,59.0,30.16,SSE,165,6.0,-999.0,73,-99.99,,,0.00,weatherlink.com 1.10,2013-03-09 18:35:00,
2013-03-09 12:50:00,67.9,59.0,30.16,SE,144,5.0,-999.0,72,-99.99,,,0.00,weatherlink.com 1.10,2013-03-09 18:50:00,
2013-03-09 13:07:00,67.0,59.0,30.16,ENE,77,10.0,-999.0,75,-99.99,,,0.00,weatherlink.com 1.10,2013-03-09 19:07:00,
2013-03-09 13:20:00,66.5,59.0,30.15,SE,126,4.0,-999.0,76,-99.99,,,0.00,weatherlink.com 1.10,2013-03-09 19:20:00,
2013-03-09 13:35:00,66.3,59.0,30.14,SE,146,2.0,-999.0,77,-99.99,,,0.00,weatherlink.com 1.10,2013-03-09 19:35:00,
2013-03-09 13:50:00,66.2,59.0,30.14,ESE,123,7.0,-999.0,77,-99.99,,,0.00,weatherlink.com 1.10,2013-03-09 19:50:00,
2013-03-09 14:06:00,66.0,59.0,30.12,ESE,123,9.0,-999.0,77,-99.99,,,0.00,weatherlink.com 1.10,2013-03-09 20:06:00,
2013-03-09 14:20:00,65.8,58.0,30.11,SSE,150,2.0,-999.0,77,-99.99,,,0.00,weatherlink.com 1.10,2013-03-09 20:20:00,
2013-03-09 14:36:00,65.5,58.0,30.11,SE,126,8.0,-999.0,77,-99.99,,,0.00,weatherlink.com 1.10,2013-03-09 20:36:00,
2013-03-09 14:50:00,65.1,58.0,30.11,SE,140,8.0,-999.0,79,-99.99,,,0.00,weatherlink.com 1.10,2013-03-09 20:50:00,
2013-03-09 15:05:00,64.9,58.0,30.11,East,87,13.0,-999.0,79,-99.99,,,0.00,weatherlink.com 1.10,2013-03-09 21:05:00,
2013-03-09 15:20:00,64.6,59.0,30.11,ESE,112,9.0,-999.0,81,-99.99,,,0.00,weatherlink.com 1.10,2013-03-09 21:20:00,
2013-03-09 15:35:00,64.1,59.0,30.11,SE,138,9.0,-999.0,83,-99.99,,,0.00,weatherlink.com 1.10,2013-03-09 21:35:00,
2013-03-09 15:51:00,64.0,59.0,30.10,ESE,121,8.0,-999.0,84,-99.99,,,0.00,weatherlink.com 1.10,2013-03-09 21:51:00,
2013-03-09 16:06:00,64.1,60.0,30.10,SE,134,11.0,-999.0,85,-99.99,,,0.00,weatherlink.com 1.10,2013-03-09 22:06:00,
2013-03-09 16:21:00,64.7,60.0,30.10,SSE,150,8.0,-999.0,85,-99.99,,,0.00,weatherlink.com 1.10,2013-03-09 22:21:00,
2013-03-09 16:36:00,64.8,60.0,30.09,SE,131,9.0,-999.0,85,-99.99,,,0.00,weatherlink.com 1.10,2013-03-09 22:36:00,
2013-03-09 16:51:00,64.9,61.0,30.09,ENE,76,7.0,-999.0,86,-99.99,,,0.00,weatherlink.com 1.10,2013-03-09 22:51:00,
2013-03-09 17:06:00,65.0,61.0,30.09,SE,126,7.0,-999.0,86,-99.99,,,0.00,weatherlink.com 1.10,2013-03-09 23:06:00,
2013-03-09 17:20:00,64.4,61.0,30.09,ESE,103,9.0,-999.0,87,-99.99,,,0.00,weatherlink.com 1.10,2013-03-09 23:20:00,
2013-03-09 17:36:00,63.6,60.0,30.07,ESE,116,9.0,-999.0,89,-99.99,,,0.00,weatherlink.com 1.10,2013-03-09 23:36:00,
2013-03-09 17:50:00,63.1,60.0,30.08,ESE,113,11.0,-999.0,90,-99.99,,,0.00,weatherlink.com 1.10,2013-03-09 23:50:00,
2013-03-09 18:06:00,62.6,60.0,30.07,ESE,117,6.0,-999.0,91,-99.99,,,0.00,weatherlink.com 1.10,2013-03-10 00:06:00,
2013-03-09 18:21:00,62.3,60.0,30.07,SE,136,6.0,-999.0,92,-99.99,,,0.00,weatherlink.com 1.10,2013-03-10 00:21:00,
2013-03-09 18:37:00,62.2,60.0,30.07,East,100,14.0,-999.0,93,-99.99,,,0.00,weatherlink.com 1.10,2013-03-10 00:37:00,
2013-03-09 18:51:00,62.2,60.0,30.06,SSE,153,7.0,-999.0,93,-99.99,,,0.00,weatherlink.com 1.10,2013-03-10 00:51:00,
2013-03-09 19:06:00,62.3,60.0,30.06,SE,132,5.0,-999.0,93,-99.99,,,0.00,weatherlink.com 1.10,2013-03-10 01:06:00,
2013-03-09 19:21:00,62.2,60.0,30.06,SSE,153,7.0,-999.0,93,-99.99,,,0.00,weatherlink.com 1.10,2013-03-10 01:21:00,
2013-03-09 19:36:00,62.2,60.0,30.06,SSE,157,11.0,-999.0,93,-99.99,,,0.00,weatherlink.com 1.10,2013-03-10 01:36:00,
2013-03-09 19:51:00,62.2,61.0,30.06,SE,137,14.0,-999.0,94,-99.99,,,0.00,weatherlink.com 1.10,2013-03-10 01:51:00,
2013-03-09 20:06:00,62.2,61.0,30.05,ESE,118,9.0,-999.0,94,-99.99,,,0.00,weatherlink.com 1.10,2013-03-10 02:06:00,
2013-03-09 20:21:00,62.3,61.0,30.05,SSE,151,6.0,-999.0,94,-99.99,,,0.00,weatherlink.com 1.10,2013-03-10 02:21:00,
2013-03-09 20:36:00,62.4,61.0,30.05,SE,144,7.0,-999.0,94,-99.99,,,0.00,weatherlink.com 1.10,2013-03-10 02:36:00,
2013-03-09 20:51:00,62.3,61.0,30.05,ESE,105,8.0,-999.0,94,-99.99,,,0.00,weatherlink.com 1.10,2013-03-10 02:51:00,
2013-03-09 21:07:00,62.2,61.0,30.05,SSE,157,5.0,-999.0,95,-99.99,,,0.00,weatherlink.com 1.10,2013-03-10 03:07:00,
2013-03-09 21:21:00,62.2,61.0,30.05,ESE,114,7.0,-999.0,95,-99.99,,,0.00,weatherlink.com 1.10,2013-03-10 03:21:00,
2013-03-09 21:36:00,62.2,61.0,30.04,ESE,121,11.0,-999.0,95,-99.99,,,0.00,weatherlink.com 1.10,2013-03-10 03:36:00,
2013-03-09 21:51:00,62.3,61.0,30.04,ESE,122,8.0,-999.0,95,-99.99,,,0.00,weatherlink.com 1.10,2013-03-10 03:51:00,
2013-03-09 22:06:00,62.4,61.0,30.03,ESE,121,5.0,-999.0,95,-99.99,,,0.00,weatherlink.com 1.10,2013-03-10 04:06:00,
2013-03-09 22:21:00,62.4,61.0,30.02,SE,144,5.0,-999.0,95,-99.99,,,0.00,weatherlink.com 1.10,2013-03-10 04:21:00,
2013-03-09 22:36:00,62.5,61.0,30.01,SSE,158,11.0,-999.0,95,-99.99,,,0.00,weatherlink.com 1.10,2013-03-10 04:36:00,
2013-03-09 22:51:00,62.6,61.0,30.01,South,170,7.0,-999.0,94,-99.99,,,0.00,weatherlink.com 1.10,2013-03-10 04:51:00,
2013-03-09 23:06:00,62.6,61.0,30.02,SE,134,7.0,-999.0,94,-99.99,,,0.00,weatherlink.com 1.10,2013-03-10 05:06:00,
2013-03-09 23:21:00,62.6,61.0,30.01,SSE,156,8.0,-999.0,94,-99.99,,,0.00,weatherlink.com 1.10,2013-03-10 05:21:00,
2013-03-09 23:36:00,62.5,61.0,30.01,SSE,154,4.0,-999.0,94,-99.99,,,0.00,weatherlink.com 1.10,2013-03-10 05:36:00,
2013-03-09 23:51:00,62.5,61.0,30.00,ESE,102,5.0,-999.0,95,-99.99,,,0.00,weatherlink.com 1.10,2013-03-10 05:51:00,